Time;durP1;ratioP1;P1;durP2;ratioP2;P2;SDS_P1;SDS_P2;PMS_P1;PMS_P2;Temp;Humidity;BMP_temperature;BMP_pressure;BME280_temperature;BME280_humidity;BME280_pressure;Samples;Min_cycle;Max_cycle;Signal;HPM_P1;HPM_P2
2022/04/03 00:00:36;;;;;;;;;43.25;37.50;7.50;73.30;;;;;;4956168;28;8801;-63
2022/04/03 00:03:04;;;;;;;;;49.75;40.25;7.50;74.70;;;;;;4956271;28;8777;-61
2022/04/03 00:05:33;;;;;;;;;39.75;36.25;7.40;74.90;;;;;;4956382;28;9494;-61
2022/04/03 00:07:59;;;;;;;;;43.25;37.50;7.30;75.30;;;;;;4955373;28;8887;-61
2022/04/03 00:10:25;;;;;;;;;43.75;38.00;7.40;75.00;;;;;;4946813;28;8812;-61
2022/04/03 00:12:51;;;;;;;;;39.75;37.75;7.40;75.30;;;;;;4946192;28;8782;-61
2022/04/03 00:15:17;;;;;;;;;43.00;38.75;7.50;74.70;;;;;;4936856;29;8807;-60
2022/04/03 00:17:43;;;;;;;;;39.75;38.75;7.50;74.40;;;;;;4936888;29;8767;-61
2022/04/03 00:20:11;;;;;;;;;44.00;38.50;7.30;75.00;;;;;;4936853;29;8778;-61
2022/04/03 00:22:37;;;;;;;;;41.75;39.50;6.80;80.00;;;;;;4936838;29;8794;-61
2022/04/03 00:25:04;;;;;;;;;40.75;36.00;6.60;83.40;;;;;;4936851;29;8790;-61
2022/04/03 00:27:30;;;;;;;;;40.25;38.00;7.00;80.70;;;;;;4935816;29;8933;-61
2022/04/03 00:29:56;;;;;;;;;38.25;37.75;7.20;78.10;;;;;;4937064;29;8914;-60
2022/04/03 00:32:22;;;;;;;;;46.00;40.00;7.00;79.80;;;;;;4937089;29;8790;-60
2022/04/03 00:34:48;;;;;;;;;44.25;36.75;7.10;79.10;;;;;;4939882;29;9438;-61
2022/04/03 00:37:14;;;;;;;;;44.50;39.75;7.00;78.30;;;;;;4940510;29;8906;-61
2022/04/03 00:39:39;;;;;;;;;42.00;39.00;7.30;77.70;;;;;;4940397;29;8894;-59
2022/04/03 00:42:07;;;;;;;;;49.00;42.25;6.60;80.80;;;;;;4940387;29;8799;-61
2022/04/03 00:44:35;;;;;;;;;47.25;39.75;6.40;84.50;;;;;;4940644;29;8787;-61
2022/04/03 00:47:01;;;;;;;;;47.75;41.00;6.70;83.00;;;;;;4940328;29;8870;-61
2022/04/03 00:49:27;;;;;;;;;47.25;40.00;7.00;79.70;;;;;;4940074;29;9013;-61
2022/04/03 00:51:53;;;;;;;;;44.25;39.75;6.90;78.90;;;;;;4940222;28;9528;-60
2022/04/03 00:54:19;;;;;;;;;52.75;42.50;6.90;77.80;;;;;;4949710;28;8943;-60
2022/04/03 00:56:45;;;;;;;;;38.00;36.75;6.80;78.30;;;;;;4952593;29;8855;-60
2022/04/03 00:59:12;;;;;;;;;42.50;39.25;6.70;80.50;;;;;;4940325;29;8790;-60
2022/04/03 01:01:43;;;;;;;;;41.50;40.00;6.40;81.20;;;;;;4940251;29;8882;-61
2022/04/03 01:04:09;;;;;;;;;48.25;41.00;6.30;82.10;;;;;;4940261;29;9446;-60
2022/04/03 01:06:35;;;;;;;;;38.25;33.75;6.30;82.70;;;;;;4940008;29;8861;-61
2022/04/03 01:09:02;;;;;;;;;45.75;40.25;6.50;80.00;;;;;;4940215;29;8787;-61
2022/04/03 01:11:29;;;;;;;;;63.75;49.50;6.60;78.20;;;;;;4940132;29;8782;-61
2022/04/03 01:13:55;;;;;;;;;55.50;47.25;6.40;80.80;;;;;;4939741;29;8921;-61
2022/04/03 01:16:21;;;;;;;;;54.75;45.50;6.60;79.40;;;;;;4939789;29;8782;-60
2022/04/03 01:18:47;;;;;;;;;48.00;41.00;6.60;77.70;;;;;;4939702;29;8799;-61
2022/04/03 01:21:14;;;;;;;;;48.00;41.00;6.70;77.40;;;;;;4939926;29;9500;-60
2022/04/03 01:23:40;;;;;;;;;49.00;44.00;6.50;78.70;;;;;;4939967;29;8783;-61
2022/04/03 01:26:06;;;;;;;;;54.75;46.00;5.80;86.30;;;;;;4939795;29;8818;-59
2022/04/03 01:28:31;;;;;;;;;50.50;43.50;5.40;96.80;;;;;;4939792;29;9457;-60
2022/04/03 01:30:57;;;;;;;;;48.75;41.50;5.20;99.90;;;;;;4939506;29;8783;-61
2022/04/03 01:33:23;;;;;;;;;51.00;43.00;5.30;99.90;;;;;;4939529;29;8806;-60
2022/04/03 01:35:49;;;;;;;;;52.50;44.00;5.50;99.90;;;;;;4939709;29;8892;-61
2022/04/03 01:38:15;;;;;;;;;53.25;46.00;5.60;96.70;;;;;;4939389;29;8815;-60
2022/04/03 01:40:42;;;;;;;;;48.25;42.00;5.70;91.30;;;;;;4939428;29;8787;-60
2022/04/03 01:43:10;;;;;;;;;32.50;31.50;5.70;90.90;;;;;;4939323;29;8809;-61
2022/04/03 01:45:37;;;;;;;;;57.75;45.50;5.60;92.70;;;;;;4939145;29;8787;-61
2022/04/03 01:48:04;;;;;;;;;57.50;47.25;6.10;87.20;;;;;;4939666;28;8815;-59
2022/04/03 01:50:30;;;;;;;;;31.00;23.75;6.30;81.40;;;;;;4950520;29;8981;-60
2022/04/03 01:52:55;;;;;;;;;50.25;43.75;5.80;84.20;;;;;;4952792;28;9582;-61
2022/04/03 01:55:23;;;;;;;;;60.00;46.75;5.70;87.60;;;;;;4958179;28;8832;-59
2022/04/03 01:57:49;;;;;;;;;48.00;42.75;5.90;85.00;;;;;;4958126;28;8827;-60
2022/04/03 02:00:15;;;;;;;;;57.25;44.50;6.00;84.90;;;;;;4958235;28;8764;-60
2022/04/03 02:02:41;;;;;;;;;52.50;43.50;5.80;84.90;;;;;;4958134;28;8768;-61
2022/04/03 02:05:08;;;;;;;;;47.50;43.25;6.00;82.70;;;;;;4958098;28;8830;-59
2022/04/03 02:07:34;;;;;;;;;61.50;51.00;6.20;81.60;;;;;;4958064;28;8863;-60
2022/04/03 02:10:01;;;;;;;;;52.75;44.75;6.20;80.10;;;;;;4957949;28;8797;-60
2022/04/03 02:12:27;;;;;;;;;55.50;46.75;6.30;78.90;;;;;;4957970;28;8792;-61
2022/04/03 02:14:53;;;;;;;;;49.75;44.25;6.20;79.50;;;;;;4958078;28;9499;-60
2022/04/03 02:17:19;;;;;;;;;56.25;45.75;6.00;80.90;;;;;;4958172;28;8773;-60
2022/04/03 02:19:45;;;;;;;;;52.00;45.00;5.70;87.00;;;;;;4957806;28;8792;-60
2022/04/03 02:22:10;;;;;;;;;41.75;38.50;5.90;82.40;;;;;;4957830;28;8780;-60
2022/04/03 02:24:36;;;;;;;;;60.50;47.25;6.20;79.50;;;;;;4957786;28;8772;-60
2022/04/03 02:27:02;;;;;;;;;56.50;47.75;6.10;81.90;;;;;;4957949;28;8817;-61
2022/04/03 02:29:28;;;;;;;;;52.75;44.50;5.90;81.40;;;;;;4957644;28;8768;-61
2022/04/03 02:31:54;;;;;;;;;54.75;46.00;6.00;81.00;;;;;;4957537;28;8804;-60
2022/04/03 02:34:19;;;;;;;;;50.25;43.00;5.80;83.50;;;;;;4957717;28;8954;-59
2022/04/03 02:36:45;;;;;;;;;59.75;49.00;6.00;81.60;;;;;;4957498;28;9466;-61
2022/04/03 02:39:15;;;;;;;;;55.25;44.75;5.60;88.10;;;;;;4957527;28;8768;-61
2022/04/03 02:41:41;;;;;;;;;63.75;50.25;5.60;86.60;;;;;;4957709;28;9454;-61
2022/04/03 02:44:06;;;;;;;;;58.50;50.00;5.70;86.30;;;;;;4957634;28;8897;-61
2022/04/03 02:46:32;;;;;;;;;59.00;47.75;5.70;86.30;;;;;;4957442;28;8880;-59
2022/04/03 02:48:58;;;;;;;;;61.25;51.00;5.70;85.60;;;;;;4957070;28;8875;-60
2022/04/03 02:51:24;;;;;;;;;59.00;49.00;5.90;82.60;;;;;;4957208;28;8792;-61
2022/04/03 02:53:50;;;;;;;;;58.75;48.00;6.00;80.30;;;;;;4957194;28;8773;-60
2022/04/03 02:56:16;;;;;;;;;58.75;49.25;6.00;80.00;;;;;;4956553;28;8852;-61
2022/04/03 02:58:41;;;;;;;;;53.00;45.25;6.30;77.60;;;;;;4957294;28;8800;-61
2022/04/03 03:01:08;;;;;;;;;56.00;44.25;6.20;77.10;;;;;;4957055;28;9585;-60
2022/04/03 03:03:33;;;;;;;;;61.25;50.00;6.50;75.60;;;;;;4957290;28;8871;-61
2022/04/03 03:05:59;;;;;;;;;65.00;52.00;7.00;71.60;;;;;;4956982;28;8804;-61
2022/04/03 03:08:25;;;;;;;;;64.25;49.25;6.70;72.40;;;;;;4954837;28;8808;-61
2022/04/03 03:10:51;;;;;;;;;62.75;50.00;6.60;72.80;;;;;;4957078;28;8784;-60
2022/04/03 03:13:17;;;;;;;;;61.25;50.25;6.50;72.90;;;;;;4956833;28;8854;-59
2022/04/03 03:15:43;;;;;;;;;54.75;45.75;6.50;74.20;;;;;;4957094;28;8816;-61
2022/04/03 03:18:08;;;;;;;;;53.50;47.25;6.60;72.70;;;;;;4956825;28;8769;-61
2022/04/03 03:20:34;;;;;;;;;59.75;49.25;6.50;72.50;;;;;;4956968;28;8805;-61
2022/04/03 03:23:00;;;;;;;;;63.25;49.75;6.10;75.10;;;;;;4956677;28;8851;-61
2022/04/03 03:25:29;;;;;;;;;53.75;45.00;6.00;76.60;;;;;;4956879;28;8815;-60
2022/04/03 03:27:55;;;;;;;;;59.75;49.50;5.70;78.50;;;;;;4957266;28;9534;-61
2022/04/03 03:30:21;;;;;;;;;57.75;45.50;5.60;79.60;;;;;;4956587;28;8776;-61
2022/04/03 03:32:47;;;;;;;;;59.25;47.25;5.70;78.90;;;;;;4956802;28;9475;-61
2022/04/03 03:35:13;;;;;;;;;55.25;46.00;5.90;77.90;;;;;;4956657;28;9564;-61
2022/04/03 03:37:40;;;;;;;;;45.50;39.25;6.20;75.60;;;;;;4955433;28;8823;-61
2022/04/03 03:40:08;;;;;;;;;56.50;46.25;6.00;75.00;;;;;;4956476;28;8816;-59
2022/04/03 03:42:34;;;;;;;;;57.00;46.25;5.80;76.40;;;;;;4956641;28;8847;-61
2022/04/03 03:45:01;;;;;;;;;62.25;49.75;5.80;77.00;;;;;;4956612;28;8800;-60
2022/04/03 03:47:27;;;;;;;;;61.00;46.75;6.00;75.70;;;;;;4956347;28;8785;-61
2022/04/03 03:49:53;;;;;;;;;47.50;40.00;5.90;76.10;;;;;;4956141;28;8820;-61
2022/04/03 03:52:19;;;;;;;;;57.75;48.00;5.80;77.90;;;;;;4956258;28;8883;-61
2022/04/03 03:54:45;;;;;;;;;58.50;49.00;6.60;73.20;;;;;;4956198;28;8824;-60
2022/04/03 03:57:11;;;;;;;;;55.00;44.25;6.30;72.90;;;;;;4956444;28;8835;-60
2022/04/03 03:59:37;;;;;;;;;64.00;52.25;6.60;72.90;;;;;;4956286;28;8792;-61
2022/04/03 04:02:04;;;;;;;;;51.75;43.75;6.60;72.00;;;;;;4956473;28;8803;-60
2022/04/03 04:04:29;;;;;;;;;62.75;49.75;6.50;71.00;;;;;;4956422;28;8891;-60
2022/04/03 04:06:56;;;;;;;;;53.25;46.25;6.50;71.90;;;;;;4956232;28;9693;-60
2022/04/03 04:09:23;;;;;;;;;53.00;42.50;6.40;70.60;;;;;;4959107;28;9435;-60
2022/04/03 04:11:49;;;;;;;;;49.75;43.50;6.20;73.10;;;;;;4960173;28;8776;-61
2022/04/03 04:14:14;;;;;;;;;49.25;41.50;6.20;72.90;;;;;;4960081;28;8860;-61
2022/04/03 04:16:42;;;;;;;;;46.75;40.75;6.20;72.90;;;;;;4960267;28;9004;-60
2022/04/03 04:19:09;;;;;;;;;56.50;43.25;6.30;72.60;;;;;;4960057;28;8796;-60
2022/04/03 04:21:35;;;;;;;;;55.25;45.75;5.70;76.20;;;;;;4960021;28;8875;-60
2022/04/03 04:24:01;;;;;;;;;57.00;47.50;6.00;75.80;;;;;;4959913;28;8796;-61
2022/04/03 04:26:27;;;;;;;;;53.75;45.25;6.20;74.80;;;;;;4960136;28;8824;-60
2022/04/03 04:28:53;;;;;;;;;52.25;42.00;6.40;72.90;;;;;;4959876;28;8780;-60
2022/04/03 04:31:19;;;;;;;;;48.25;43.50;6.10;73.90;;;;;;4959753;28;8895;-60
2022/04/03 04:33:45;;;;;;;;;55.50;45.50;6.30;73.50;;;;;;4959798;28;8806;-61
2022/04/03 04:36:11;;;;;;;;;48.00;43.25;6.50;71.50;;;;;;4959873;28;8860;-60
2022/04/03 04:38:37;;;;;;;;;51.50;42.75;6.50;70.70;;;;;;4959776;28;9434;-60
2022/04/03 04:41:04;;;;;;;;;58.25;48.25;6.40;70.80;;;;;;4959807;28;9458;-60
2022/04/03 04:43:30;;;;;;;;;50.75;42.25;6.40;70.60;;;;;;4959499;28;8800;-61
2022/04/03 04:45:56;;;;;;;;;50.75;41.00;6.10;72.50;;;;;;4959522;28;8930;-61
2022/04/03 04:48:22;;;;;;;;;59.25;47.00;6.30;70.70;;;;;;4959517;28;8831;-61
2022/04/03 04:50:49;;;;;;;;;51.50;44.25;6.00;73.10;;;;;;4959266;28;8820;-60
2022/04/03 04:53:15;;;;;;;;;53.00;43.50;5.90;72.90;;;;;;4959408;28;8907;-60
2022/04/03 04:55:41;;;;;;;;;54.75;44.25;5.80;73.30;;;;;;4959334;28;9018;-60
2022/04/03 04:58:07;;;;;;;;;51.75;43.75;5.80;74.50;;;;;;4959710;28;9486;-61
2022/04/03 05:00:33;;;;;;;;;46.75;41.75;6.30;72.00;;;;;;4957626;28;8768;-61
2022/04/03 05:02:59;;;;;;;;;49.00;43.25;6.50;70.10;;;;;;4959430;28;8780;-59
2022/04/03 05:05:27;;;;;;;;;53.50;46.75;6.60;68.80;;;;;;4959366;28;8808;-61
2022/04/03 05:07:58;;;;;;;;;59.50;49.00;6.70;67.90;;;;;;4959139;28;8788;-61
2022/04/03 05:10:26;;;;;;;;;60.25;50.50;6.60;68.60;;;;;;4959171;28;8761;-61
2022/04/03 05:12:55;;;;;;;;;47.75;41.00;6.40;69.70;;;;;;4958990;28;8796;-61
2022/04/03 05:15:21;;;;;;;;;52.75;46.00;6.40;70.10;;;;;;4958947;28;8840;-61
2022/04/03 05:17:48;;;;;;;;;54.25;44.75;6.20;71.30;;;;;;4959247;28;9494;-60
2022/04/03 05:20:15;;;;;;;;;62.00;49.50;6.20;71.30;;;;;;4957401;28;8802;-61
2022/04/03 05:22:42;;;;;;;;;59.50;46.50;6.20;71.40;;;;;;4959162;28;8890;-61
2022/04/03 05:25:11;;;;;;;;;58.25;46.25;6.40;71.20;;;;;;4958826;28;8812;-61
2022/04/03 05:27:40;;;;;;;;;61.25;48.00;6.40;70.60;;;;;;4959142;28;8812;-61
2022/04/03 05:30:08;;;;;;;;;55.00;45.25;6.60;70.70;;;;;;4958992;28;8772;-61
2022/04/03 05:32:35;;;;;;;;;56.25;46.25;7.00;67.50;;;;;;4958653;28;8807;-61
2022/04/03 05:35:01;;;;;;;;;61.00;47.75;6.70;67.90;;;;;;4958838;28;9495;-61
2022/04/03 05:37:27;;;;;;;;;47.00;42.25;6.80;68.40;;;;;;4958605;28;8903;-62
2022/04/03 05:39:53;;;;;;;;;47.50;41.75;6.60;69.30;;;;;;4958827;28;8784;-61
2022/04/03 05:42:20;;;;;;;;;51.00;45.75;6.60;69.30;;;;;;4958779;28;9471;-61
2022/04/03 05:44:47;;;;;;;;;51.75;43.00;6.70;68.50;;;;;;4958455;28;8886;-61
2022/04/03 05:47:13;;;;;;;;;51.50;44.00;6.70;67.30;;;;;;4958430;28;8785;-61
2022/04/03 05:49:39;;;;;;;;;56.50;46.25;6.50;67.40;;;;;;4958426;28;8844;-60
2022/04/03 05:52:05;;;;;;;;;45.00;38.75;6.60;68.50;;;;;;4958323;28;8792;-61
2022/04/03 05:54:31;;;;;;;;;40.50;39.25;6.50;68.10;;;;;;4958381;28;8894;-61
2022/04/03 05:56:56;;;;;;;;;50.25;43.50;6.30;69.40;;;;;;4955759;28;8816;-60
2022/04/03 05:59:22;;;;;;;;;46.25;41.00;6.70;68.70;;;;;;4945060;28;8796;-61
2022/04/03 06:01:49;;;;;;;;;45.25;39.50;6.70;67.50;;;;;;4951643;29;8792;-61
2022/04/03 06:04:15;;;;;;;;;47.25;41.25;6.70;67.70;;;;;;4954574;28;8908;-61
2022/04/03 06:06:41;;;;;;;;;50.25;42.00;6.80;66.30;;;;;;4947048;29;9499;-60
2022/04/03 06:09:07;;;;;;;;;44.75;39.25;6.80;66.70;;;;;;4939067;29;8771;-61
2022/04/03 06:11:33;;;;;;;;;53.50;42.50;6.70;66.70;;;;;;4938800;29;8794;-60
2022/04/03 06:14:00;;;;;;;;;49.25;41.50;6.90;65.80;;;;;;4938933;29;8762;-61
2022/04/03 06:16:27;;;;;;;;;51.50;44.50;6.60;66.50;;;;;;4938984;29;8790;-61
2022/04/03 06:18:53;;;;;;;;;44.75;38.00;6.60;67.20;;;;;;4939060;29;8790;-61
2022/04/03 06:21:19;;;;;;;;;45.50;41.00;6.70;66.50;;;;;;4938757;29;8914;-61
2022/04/03 06:23:45;;;;;;;;;43.75;38.25;6.80;66.20;;;;;;4938703;29;8925;-60
2022/04/03 06:26:11;;;;;;;;;42.50;38.00;6.80;65.80;;;;;;4938757;29;8799;-60
2022/04/03 06:28:37;;;;;;;;;41.50;38.50;6.70;67.10;;;;;;4938606;29;8802;-61
2022/04/03 06:31:04;;;;;;;;;41.50;37.00;6.50;67.50;;;;;;4937734;29;8821;-61
2022/04/03 06:33:30;;;;;;;;;49.00;42.25;7.10;66.20;;;;;;4944292;28;8800;-61
2022/04/03 06:35:56;;;;;;;;;43.25;39.75;7.20;65.90;;;;;;4947062;28;8880;-61
2022/04/03 06:38:22;;;;;;;;;36.25;32.75;7.20;64.80;;;;;;4942070;29;8787;-60
2022/04/03 06:40:53;;;;;;;;;30.00;26.00;7.10;64.80;;;;;;4938558;29;8791;-59
2022/04/03 06:43:24;;;;;;;;;33.50;31.75;6.90;64.70;;;;;;4938389;29;8783;-59
2022/04/03 06:45:52;;;;;;;;;35.75;34.25;6.80;64.30;;;;;;4943591;28;8776;-60
2022/04/03 06:48:18;;;;;;;;;40.00;35.00;6.70;64.70;;;;;;4946603;28;8800;-60
2022/04/03 06:50:45;;;;;;;;;37.25;32.00;6.90;64.30;;;;;;4964256;28;8819;-61
2022/04/03 06:53:11;;;;;;;;;35.00;34.25;7.20;63.00;;;;;;4940356;28;8799;-60
2022/04/03 06:55:37;;;;;;;;;33.00;30.25;7.10;63.90;;;;;;4957153;28;8954;-60
2022/04/03 06:58:03;;;;;;;;;33.25;28.75;7.50;62.90;;;;;;4957615;28;8803;-60
2022/04/03 07:00:30;;;;;;;;;26.75;25.50;7.50;61.30;;;;;;4955417;28;9474;-60
2022/04/03 07:02:56;;;;;;;;;30.00;29.25;7.40;61.40;;;;;;4968256;28;8923;-59
2022/04/03 07:05:22;;;;;;;;;33.25;31.00;7.20;62.60;;;;;;4950978;28;8943;-60
2022/04/03 07:07:54;;;;;;;;;28.75;28.25;7.20;62.50;;;;;;4937597;29;8808;-59
2022/04/03 07:10:20;;;;;;;;;31.75;30.75;7.50;61.40;;;;;;4938022;29;9428;-60
2022/04/03 07:12:46;;;;;;;;;27.50;27.00;7.30;61.00;;;;;;4948905;28;9474;-60
2022/04/03 07:15:13;;;;;;;;;38.50;37.00;7.10;62.50;;;;;;4937563;29;8835;-60
2022/04/03 07:17:46;;;;;;;;;28.25;28.25;7.10;62.40;;;;;;4937904;29;8765;-60
2022/04/03 07:20:15;;;;;;;;;36.25;31.50;7.40;65.40;;;;;;4937688;29;8793;-60
2022/04/03 07:22:42;;;;;;;;;29.25;29.25;7.40;62.90;;;;;;4937712;29;8888;-60
2022/04/03 07:25:09;;;;;;;;;31.50;28.50;7.50;63.40;;;;;;4937778;29;8789;-61
2022/04/03 07:27:35;;;;;;;;;29.50;28.75;7.60;64.30;;;;;;4956870;28;8843;-60
2022/04/03 07:30:01;;;;;;;;;20.75;20.00;7.70;61.80;;;;;;4975818;28;8780;-61
2022/04/03 07:32:27;;;;;;;;;27.00;27.00;7.50;62.00;;;;;;4958405;28;8806;-60
2022/04/03 07:34:53;;;;;;;;;28.75;28.00;7.40;62.40;;;;;;4953956;28;8820;-61
2022/04/03 07:37:18;;;;;;;;;23.75;22.25;7.00;61.90;;;;;;4959633;28;8803;-60
2022/04/03 07:39:44;;;;;;;;;31.00;29.50;6.80;62.10;;;;;;4947088;28;8813;-60
2022/04/03 07:42:10;;;;;;;;;26.50;24.25;6.90;63.10;;;;;;4972179;28;9443;-72
2022/04/03 07:44:36;;;;;;;;;35.50;31.25;6.80;63.20;;;;;;4952822;28;8923;-59
2022/04/03 07:47:02;;;;;;;;;31.50;28.00;6.90;63.70;;;;;;4921177;29;8809;-59
2022/04/03 07:49:27;;;;;;;;;26.25;25.25;6.90;62.90;;;;;;4936215;29;8815;-60
2022/04/03 07:51:53;;;;;;;;;34.75;30.50;6.80;63.90;;;;;;4937252;29;8787;-59
2022/04/03 07:54:19;;;;;;;;;25.50;25.50;6.80;64.10;;;;;;4937035;29;8795;-61
2022/04/03 07:56:45;;;;;;;;;27.50;25.50;6.70;63.50;;;;;;4937229;29;8823;-61
2022/04/03 07:59:11;;;;;;;;;33.00;32.75;6.70;63.40;;;;;;4937119;29;8825;-61
2022/04/03 08:01:36;;;;;;;;;28.00;25.25;6.80;64.00;;;;;;4951872;28;8792;-61
2022/04/03 08:04:03;;;;;;;;;23.50;21.75;7.00;62.50;;;;;;4953062;28;8785;-60
2022/04/03 08:06:28;;;;;;;;;26.50;26.25;6.80;62.60;;;;;;4956232;29;8792;-62
2022/04/03 08:08:54;;;;;;;;;24.50;21.25;6.90;62.10;;;;;;4956388;29;8912;-60
2022/04/03 08:11:20;;;;;;;;;34.00;30.50;6.80;62.50;;;;;;4956133;28;9419;-59
2022/04/03 08:13:47;;;;;;;;;30.75;29.00;6.70;63.30;;;;;;4956002;28;8804;-58
2022/04/03 08:16:15;;;;;;;;;23.75;23.75;6.80;63.70;;;;;;4955995;28;8914;-70
2022/04/03 08:18:41;;;;;;;;;24.75;24.75;6.60;64.30;;;;;;4956081;28;8799;-60
2022/04/03 08:21:08;;;;;;;;;25.75;22.75;6.60;63.60;;;;;;4956286;28;8781;-65
2022/04/03 08:23:34;;;;;;;;;29.00;27.00;6.50;63.50;;;;;;4955010;29;8805;-59
2022/04/03 08:25:59;;;;;;;;;32.75;30.50;6.60;64.30;;;;;;4956234;28;8795;-59
2022/04/03 08:28:25;;;;;;;;;25.50;25.50;6.60;64.30;;;;;;4954964;28;9481;-59
2022/04/03 08:30:52;;;;;;;;;22.25;21.50;6.80;64.00;;;;;;4955880;29;8781;-59
2022/04/03 08:33:19;;;;;;;;;25.50;24.75;6.70;63.40;;;;;;4956168;29;8899;-60
2022/04/03 08:35:45;;;;;;;;;24.75;23.75;6.60;64.50;;;;;;4955905;29;8820;-65
2022/04/03 08:38:11;;;;;;;;;31.00;28.25;6.80;63.20;;;;;;4955953;29;8903;-62
2022/04/03 08:40:37;;;;;;;;;31.25;26.75;6.70;64.30;;;;;;4956168;29;8887;-62
2022/04/03 08:43:04;;;;;;;;;27.50;27.50;6.70;63.90;;;;;;4955498;29;8792;-63
2022/04/03 08:45:30;;;;;;;;;27.50;26.50;6.70;63.60;;;;;;4955837;28;8792;-62
2022/04/03 08:47:58;;;;;;;;;19.50;19.50;6.70;63.00;;;;;;4955770;29;8830;-63
2022/04/03 08:50:31;;;;;;;;;24.50;22.50;6.60;63.60;;;;;;4955605;28;8886;-60
2022/04/03 08:53:02;;;;;;;;;27.25;26.00;6.60;62.50;;;;;;4955835;28;8800;-61
2022/04/03 08:55:29;;;;;;;;;28.50;24.00;6.70;63.90;;;;;;4958273;28;8828;-58
2022/04/03 08:57:55;;;;;;;;;19.25;19.25;6.70;64.30;;;;;;4959376;28;9451;-61
2022/04/03 09:00:22;;;;;;;;;32.00;32.00;6.80;63.70;;;;;;4959231;28;8777;-60
2022/04/03 09:02:49;;;;;;;;;24.75;23.25;6.90;63.10;;;;;;4959104;28;8802;-59
2022/04/03 09:05:16;;;;;;;;;29.75;29.00;6.80;63.30;;;;;;4959063;28;8815;-60
2022/04/03 09:07:42;;;;;;;;;29.75;28.50;6.60;63.70;;;;;;4959060;28;8784;-61
2022/04/03 09:10:10;;;;;;;;;31.00;29.00;6.60;65.00;;;;;;4959096;28;8915;-61
2022/04/03 09:13:02;;;;;;;;;31.50;29.50;6.50;65.20;;;;;;4958826;28;8823;-60
2022/04/03 09:15:29;;;;;;;;;28.50;27.75;6.80;64.60;;;;;;4956919;28;8836;-61
2022/04/03 09:18:00;;;;;;;;;32.50;31.50;6.90;64.60;;;;;;4958953;28;8816;-65
2022/04/03 09:20:30;;;;;;;;;26.50;24.00;6.90;65.10;;;;;;4957645;28;8776;-62
2022/04/03 09:23:07;;;;;;;;;30.25;30.25;6.90;65.30;;;;;;4958842;28;8816;-61
2022/04/03 09:25:35;;;;;;;;;33.25;31.50;6.90;66.20;;;;;;4958967;28;8765;-60
2022/04/03 09:28:04;;;;;;;;;28.50;26.25;6.90;66.40;;;;;;4959424;28;8800;-61
2022/04/03 09:30:42;;;;;;;;;37.50;33.00;7.10;64.80;;;;;;4958766;28;8768;-60
2022/04/03 09:33:10;;;;;;;;;29.00;28.25;7.30;64.60;;;;;;4958770;28;8773;-59
2022/04/03 09:36:01;;;;;;;;;31.50;31.50;7.60;63.60;;;;;;4958326;28;8855;-59
2022/04/03 09:38:27;;;;;;;;;29.25;27.25;7.40;63.00;;;;;;4958210;28;8804;-60
2022/04/03 09:40:54;;;;;;;;;27.25;27.25;7.20;64.40;;;;;;4957693;28;8882;-60
2022/04/03 09:43:27;;;;;;;;;22.50;22.50;7.00;63.20;;;;;;4958327;28;8898;-61
2022/04/03 09:45:58;;;;;;;;;29.25;25.50;6.80;65.20;;;;;;4958416;28;8765;-62
2022/04/03 09:48:26;;;;;;;;;29.00;24.50;6.70;64.40;;;;;;4958451;28;8788;-62
2022/04/03 09:50:56;;;;;;;;;34.75;28.50;6.60;65.40;;;;;;4958186;28;8823;-64
2022/04/03 09:53:23;;;;;;;;;31.25;28.50;6.60;66.00;;;;;;4958263;28;8785;-61
2022/04/03 09:55:49;;;;;;;;;34.00;31.75;6.60;67.20;;;;;;4958239;28;9502;-61
2022/04/03 09:58:16;;;;;;;;;27.75;26.00;6.80;66.70;;;;;;4958204;28;8812;-61
2022/04/03 10:00:42;;;;;;;;;22.00;21.00;6.70;65.80;;;;;;4958444;28;9473;-62
2022/04/03 10:03:13;;;;;;;;;22.00;21.50;6.60;65.00;;;;;;4958082;28;8791;-62
2022/04/03 10:05:40;;;;;;;;;25.00;24.25;6.60;65.80;;;;;;4958159;28;8799;-62
2022/04/03 10:08:07;;;;;;;;;25.50;22.50;7.20;64.70;;;;;;4958055;28;9501;-62
2022/04/03 10:10:35;;;;;;;;;26.25;26.25;7.10;63.90;;;;;;4958094;28;8788;-62
2022/04/03 10:13:02;;;;;;;;;31.25;29.00;7.40;64.40;;;;;;4957503;28;8777;-61
2022/04/03 10:15:30;;;;;;;;;24.50;21.75;7.50;62.70;;;;;;4957170;28;8812;-62
2022/04/03 10:17:56;;;;;;;;;25.00;23.50;7.00;62.90;;;;;;4957836;28;8804;-63
2022/04/03 10:20:30;;;;;;;;;29.50;23.25;6.70;64.10;;;;;;4957833;28;8760;-62
2022/04/03 10:23:10;;;;;;;;;23.25;22.75;6.50;65.90;;;;;;4957878;28;8796;-63
2022/04/03 10:25:44;;;;;;;;;28.00;25.50;6.70;66.60;;;;;;4957787;28;8800;-62
2022/04/03 10:28:11;;;;;;;;;24.00;21.50;6.80;64.50;;;;;;4957726;28;8804;-64
2022/04/03 10:30:44;;;;;;;;;17.25;17.25;7.30;64.20;;;;;;4957891;28;9450;-65
2022/04/03 10:33:24;;;;;;;;;19.25;19.00;7.20;63.90;;;;;;4957552;28;8815;-61
2022/04/03 10:36:10;;;;;;;;;20.50;19.00;7.20;61.90;;;;;;4957498;28;8819;-61
2022/04/03 10:38:38;;;;;;;;;18.50;18.50;7.10;63.30;;;;;;4957536;28;8820;-64
2022/04/03 10:41:05;;;;;;;;;18.00;18.00;6.90;64.80;;;;;;4957470;28;8777;-61
2022/04/03 10:43:37;;;;;;;;;23.75;23.50;7.30;64.10;;;;;;4957601;28;8772;-62
2022/04/03 10:46:03;;;;;;;;;21.75;19.50;7.50;63.60;;;;;;4957615;28;9455;-62
2022/04/03 10:48:30;;;;;;;;;24.25;23.75;7.70;62.60;;;;;;4956372;28;8919;-63
2022/04/03 10:51:11;;;;;;;;;25.50;24.25;8.00;61.40;;;;;;4953483;28;8832;-62
2022/04/03 10:53:47;;;;;;;;;29.75;27.75;7.80;62.50;;;;;;4954036;28;8800;-65
2022/04/03 10:56:24;;;;;;;;;28.00;25.50;7.40;65.00;;;;;;4955782;28;8894;-62
2022/04/03 10:58:51;;;;;;;;;26.00;23.50;7.50;64.30;;;;;;4955527;28;8903;-61
2022/04/03 11:01:32;;;;;;;;;22.25;18.75;8.30;62.00;;;;;;4955942;28;8781;-60
2022/04/03 11:04:11;;;;;;;;;18.00;18.00;8.60;60.30;;;;;;4954680;28;8777;-61
2022/04/03 11:06:38;;;;;;;;;20.25;19.50;8.60;59.10;;;;;;4954130;28;8773;-61
2022/04/03 11:09:12;;;;;;;;;20.00;20.00;8.60;59.10;;;;;;4955650;28;8797;-61
2022/04/03 11:11:44;;;;;;;;;27.00;26.00;8.30;60.60;;;;;;4955597;28;8788;-60
2022/04/03 11:14:33;;;;;;;;;24.75;24.25;8.70;58.80;;;;;;4953186;28;8887;-61
2022/04/03 11:17:00;;;;;;;;;24.00;21.50;8.50;58.50;;;;;;4953632;28;8813;-60
2022/04/03 11:19:40;;;;;;;;;24.75;23.25;8.50;58.70;;;;;;4955425;28;8883;-64
2022/04/03 11:22:08;;;;;;;;;18.25;16.25;9.20;59.50;;;;;;4956339;28;8828;-64
2022/04/03 11:24:36;;;;;;;;;26.50;26.00;9.70;57.50;;;;;;4956643;28;8772;-65
2022/04/03 11:27:04;;;;;;;;;27.00;25.50;9.90;56.00;;;;;;4955490;28;8813;-66
2022/04/03 11:29:30;;;;;;;;;25.00;24.75;9.50;55.30;;;;;;4956704;28;9487;-63
2022/04/03 11:31:57;;;;;;;;;28.00;27.00;9.10;57.00;;;;;;4956820;28;8785;-67
2022/04/03 11:34:30;;;;;;;;;27.25;25.25;8.90;57.90;;;;;;4956748;28;9493;-62
2022/04/03 11:36:57;;;;;;;;;21.75;21.75;8.30;59.50;;;;;;4956649;28;8804;-67
2022/04/03 11:39:33;;;;;;;;;18.00;18.00;7.40;61.80;;;;;;4956632;28;8807;-66
2022/04/03 11:42:03;;;;;;;;;23.75;20.75;7.10;63.20;;;;;;4956792;28;8768;-66
2022/04/03 11:44:29;;;;;;;;;25.50;23.50;6.90;65.30;;;;;;4956719;28;8776;-66
2022/04/03 11:46:55;;;;;;;;;30.00;28.25;7.00;66.60;;;;;;4956428;28;8777;-67
2022/04/03 11:49:25;;;;;;;;;25.00;23.75;7.20;66.20;;;;;;4956131;28;8872;-65
2022/04/03 11:51:56;;;;;;;;;26.00;24.75;7.10;65.90;;;;;;4956392;28;8811;-66
2022/04/03 11:54:25;;;;;;;;;28.25;26.00;7.10;66.40;;;;;;4955926;28;8966;-66
2022/04/03 11:56:59;;;;;;;;;26.25;25.25;7.50;66.20;;;;;;4956108;28;8836;-66
2022/04/03 11:59:25;;;;;;;;;29.25;28.75;7.80;62.70;;;;;;4956430;28;9443;-66
2022/04/03 12:01:51;;;;;;;;;31.00;28.00;7.80;63.70;;;;;;4956441;28;8795;-66
2022/04/03 12:04:17;;;;;;;;;28.50;27.50;8.00;63.10;;;;;;4956403;28;8768;-65
2022/04/03 12:06:49;;;;;;;;;22.75;22.75;8.30;61.90;;;;;;4956118;28;8915;-64
2022/04/03 12:09:18;;;;;;;;;25.00;25.00;7.60;63.70;;;;;;4956174;28;8780;-64
2022/04/03 12:11:48;;;;;;;;;19.00;18.75;7.50;64.30;;;;;;4956379;28;8780;-66
2022/04/03 12:14:31;;;;;;;;;27.00;25.00;6.90;66.80;;;;;;4956552;28;8784;-66
2022/04/03 12:17:07;;;;;;;;;24.75;24.75;6.60;70.30;;;;;;4956147;28;8792;-66
2022/04/03 12:19:46;;;;;;;;;31.00;27.25;6.80;70.10;;;;;;4956173;28;8780;-66
2022/04/03 12:22:15;;;;;;;;;32.25;30.50;6.70;71.60;;;;;;4956030;28;8922;-66
2022/04/03 12:24:43;;;;;;;;;30.50;26.75;6.70;73.40;;;;;;4956008;28;8818;-66
2022/04/03 12:27:14;;;;;;;;;28.00;27.25;6.90;74.20;;;;;;4956366;28;9479;-65
2022/04/03 12:29:46;;;;;;;;;31.00;27.75;6.70;76.30;;;;;;4957514;28;8862;-65
2022/04/03 12:32:19;;;;;;;;;27.25;27.25;6.30;82.00;;;;;;4959996;28;8827;-66
2022/04/03 12:34:48;;;;;;;;;35.00;31.25;6.60;81.50;;;;;;4959700;28;8811;-65
2022/04/03 12:37:15;;;;;;;;;31.75;30.75;6.80;80.10;;;;;;4959777;28;8874;-65
2022/04/03 12:39:50;;;;;;;;;26.00;24.75;6.80;81.80;;;;;;4959734;28;8843;-66
2022/04/03 12:42:20;;;;;;;;;29.75;25.50;6.90;81.40;;;;;;4959593;28;8780;-66
2022/04/03 12:45:16;;;;;;;;;27.75;26.75;10.20;72.40;;;;;;4959630;28;8816;-66
2022/04/03 12:48:03;;;;;;;;;21.00;20.33;17.20;48.50;;;;;;4959557;28;8815;-65